Tiempo atmosférico en la estación meteorológica de Puebla De Don Rodrigo, Ciudad Real (485 m.)



Fecha
DESCASC
Temp. máxima en grados centígrados (hora)
DESCASC
Temp. mínima en grados centígrados (hora)
DESCASC
Temp. media en grados centígrados
DESCASC
Racha de viento máxima en m/sg (hora)
DESCASC
Velocidad máxima media en intervalos de 10 minutos(hora)
DESCASC
Precipitaciones diarias en mm
DESCASC
Precipitaciones de 00:00 a 06:00 en mm
DESCASC
Precipitaciones de 06:00 a 12:00 en mm
DESCASC
Precipitaciones de 12:00 a 18:00 en mm
DESCASC
Precipitaciones de 18:00 a 24:00 en mm
DESCASC
30-11-2020 16.7 (14:30) 5.7 (08:30) 11.2 5.83 (11:50) 3.61 (15:50) 0 0 0 0 0
29-11-2020 14.9 (13:20) 6.7 (00:00) 10.8 6.39 (13:10) 3.61 (13:20) 0.8 0.1 0.7 0 0
28-11-2020 12.4 (14:00) 3.7 (00:00) 8 4.72 (15:20) 3.06 (15:20) 0 0 0 0 0
27-11-2020 12.7 (14:10) 7.7 (00:00) 10.2 9.72 (14:50) 6.39 (14:50) 4 1.2 2.6 0.2 0
26-11-2020 10.9 (15:20) 7.8 (00:00) 9.3 7.5 (04:10) 4.17 (04:10) 17.9 3.1 7.2 6.7 0.9
25-11-2020 14.7 (12:30) 6.3 (00:00) 10.5 7.78 (12:10) 5.28 (12:10) 2.6 0 0 2 0.6
24-11-2020 16.9 (15:10) -1.4 (-00:0) 7.7 4.44 (15:10) 2.5 (14:30) 0 0 0 0 0
23-11-2020 17 (15:30) 1.3 (00:00) 9.1 3.33 (14:20) 1.67 (15:20) 0 0 0 0 0
22-11-2020 18.4 (16:40) 0.9 (00:00) 9.6 3.33 (12:10) 1.94 (12:00) 0 0 0 0 0
21-11-2020 19.6 (15:00) 1.9 (00:00) 10.8 3.61 (11:50) 2.22 (12:00) 0 0 0 0 0
20-11-2020 21.4 (15:20) 5.3 (00:00) 13.3 8.06 (15:50) 4.72 (15:50) 0 0 0 0 0
19-11-2020 24.6 (15:40) 7 (00:00) 15.8 4.72 (17:30) 3.06 (17:30) 0.2 0.1 0.1 0 0
18-11-2020 24 (16:30) 6.3 (00:00) 15.2 2.5 (19:00) 1.67 (18:20) 0.3 0.1 0.2 0 0
17-11-2020 21.2 (17:00) 8.1 (00:00) 14.7 2.78 (18:40) 1.94 (18:40) 0.3 0.2 0.1 0 0
16-11-2020 22.4 (14:30) 9.9 (00:00) 16.1 4.17 (14:50) 2.22 (19:00) 0 0 0 0 0
15-11-2020 21.6 (15:00) 11.5 (00:00) 16.6 6.11 (14:50) 3.89 (12:10) 0 0 0 0 0
14-11-2020 14.3 (16:50) 10.1 (00:00) 12.2 3.61 (18:20) 2.22 (20:10) 3.1 0.1 0.4 2.1 0.5
13-11-2020 17.6 (15:40) 4.3 (00:00) 11 3.06 (12:00) 1.67 (12:20) 0 0 0 0 0
12-11-2020 20.1 (14:40) 5.6 (00:00) 12.9 6.67 (14:50) 4.17 (15:00) 0 0 0 0 0
11-11-2020 20.8 (15:00) 4.9 (00:00) 12.8 3.89 (13:20) 1.94 (13:00) 0.3 0.2 0.1 0 0
10-11-2020 18.7 (15:50) 6 (00:00) 12.4 4.44 (16:10) 2.78 (16:30) 0.2 0.1 0.1 0 0
09-11-2020 19.3 (15:30) 8.8 (00:00) 14 4.17 (14:40) 2.22 (12:50) 5 1.8 3.2 0 0
08-11-2020 18.7 (13:50) 5.8 (00:00) 12.3 6.39 (13:30) 3.89 (13:30) 0 0 0 0 0
07-11-2020 17.5 (14:10) 9.1 (00:00) 13.3 10.83 (04:30) 6.11 (04:10) 3.7 3.3 0.4 0 0
06-11-2020 21.2 (16:20) 10.6 (00:00) 15.9 13.61 (23:00) 8.33 (23:00) 2.3 0 0 0 2.3
05-11-2020 16 (14:30) 9 (00:00) 12.5 13.89 (05:10) 7.5 (05:00) 13.7 0.5 0 13.2 0
04-11-2020 15 (15:00) 9.4 (00:00) 12.2 19.44 (13:20) 4.17 (22:40) 17.6 0 3.5 12 2.1
03-11-2020 21.1 (13:30) 12.3 (00:00) 16.7 5.28 (21:10) 2.22 (23:40) 1.5 0 0 1.1 0.4
02-11-2020 25.8 (16:20) 5.4 (00:00) 15.6 3.33 (16:00) 2.22 (22:20) 0 0 0 0 0

Gráficas

Temp. máximas Temp. mínimas Temp. medias Precipitaciones Rachas de viento máximas Velocidades máximas media en intervalos de 10 minutos

Datos horarios

Fecha y hora oficial Temperatura (ºC) Velocidad del viento (km/h) Dirección del viento Racha (km/h) Dirección de racha Precipitación (mm) Presión (hPa) Tendencia (hPa) Humedad (%)
2020-12-01 23:00:00 5.7 0 Calma 4 Norte 0 957.9 -- 96
2020-12-01 22:00:00 5.6 0 Calma 6 Sudoeste 0 958.3 -- 96
2020-12-01 21:00:00 6.5 0 Calma 4 Noroeste 0 958.3 -- 95
2020-12-01 20:00:00 7.6 0 Calma 5 Oeste 0 958.3 -- 93
2020-12-01 19:00:00 8.6 3 Oeste 5 Oeste 0 958 -- 92
2020-12-01 18:00:00 9.1 0 Calma 6 Sudeste 0 958.3 -- 86
2020-12-01 17:00:00 10.9 4 Este 7 Sudeste 0 958.4 -- 75
2020-12-01 16:00:00 10.1 3 Este 9 Este 0 958.9 -- 93
2020-12-01 15:00:00 8.5 3 Este 10 Este 0 959.4 -- 96
2020-12-01 14:00:00 7.3 2 Este 10 Sudeste 0 960.1 -- 96
2020-12-01 13:00:00 6.7 4 Sudeste 8 Nordeste 0 960.9 -- 96
2020-12-01 12:00:00 5.6 4 Este 8 Nordeste 0 961.8 -- 96
2020-12-01 11:00:00 5 2 Este 12 Este 0 962.2 -- 96
2020-12-01 10:00:00 4.7 5 Este 11 Sudeste 0 962 -- 96
2020-12-01 09:00:00 4.3 3 Nordeste 7 Nordeste 0.1 961.9 -- 96
2020-12-01 08:00:00 4.2 3 Sudeste 8 Sudeste 0 961.7 -- 96
2020-12-01 07:00:00 4.7 0 Calma 5 Este 0 961.3 -- 96
2020-12-01 06:00:00 4.7 0 Calma 5 Nordeste 0 961.5 -- 96
2020-12-01 05:00:00 4.9 0 Calma 6 Sudeste 0.1 961.2 -- 96
2020-12-01 04:00:00 5.3 3 Este 6 Este 0 961.3 -- 96
2020-12-01 03:00:00 5.7 0 Calma 4 Norte 0 961.5 -- 96
2020-12-01 02:00:00 6.1 0 Calma 6 Noroeste 0 961.6 -- 96
2020-12-01 01:00:00 5.6 0 Calma 6 Sudoeste 0 961.7 -- 96
2020-12-01 00:00:00 6.9 3 Noroeste 6 Noroeste 0 961.6 -- 96
2020-11-30 23:00:00 7.6 0 Calma 6 Oeste 0 961.1 -- 95
2020-11-30 22:00:00 8 4 Noroeste 7 Noroeste 0 960.9 -- 93
2020-11-30 21:00:00 8.6 0 Calma 6 Noroeste 0 960.5 -- 92
2020-11-30 20:00:00 9.3 4 Noroeste 7 Noroeste 0 959.8 -- 89
2020-11-30 19:00:00 9.8 0 Calma 9 Sudeste 0 959.7 -- 84
2020-11-30 18:00:00 10.6 4 Sudeste 16 Sudeste 0 959.4 -- 76
2020-11-30 17:00:00 11.7 12 Sudeste 20 Este 0 959.2 -- 70
2020-11-30 16:00:00 12.7 12 Este 20 Este 0 958.3 -- 65
2020-11-30 15:00:00 15.7 12 Sudeste 17 Sudeste 0 958.1 -- 50
2020-11-30 14:00:00 15.4 8 Este 17 Sudeste 0 958.6 -- 49
2020-11-30 13:00:00 14.8 8 Este 18 Este 0 959 -- 52
2020-11-30 12:00:00 12.5 13 Este 21 Este 0 959.8 -- 61
2020-11-30 11:00:00 10.5 12 Este 19 Este 0 959.9 -- 70
2020-11-30 10:00:00 7.2 11 Este 17 Este 0 959.6 -- 88
2020-11-30 09:00:00 6.2 4 Este 8 Este 0 959.1 -- 93
2020-11-30 08:00:00 6.4 2 Nordeste 9 Este 0 958.4 -- 92
2020-11-30 07:00:00 6.4 5 Este 9 Nordeste 0 958.1 -- 92
2020-11-30 06:00:00 7.1 5 Nordeste 7 Nordeste 0 957.8 -- 87
2020-11-30 05:00:00 7.7 0 Calma 8 Norte 0 957.7 -- 81
2020-11-30 04:00:00 8.8 4 Nordeste 10 Nordeste 0 957.6 -- 76
2020-11-30 03:00:00 9.1 3 Noroeste 9 Nordeste 0 957.6 -- 77
2020-11-30 02:00:00 9.2 3 Norte 7 Norte 0 957.4 -- 77
2020-11-30 01:00:00 9.8 4 Norte 9 Sudeste 0 957.4 -- 74
2020-11-30 00:00:00 10.5 5 Este 9 Sudeste 0 957.1 -- 69
2020-11-29 23:00:00 10.7 5 Este 12 Este 0 956.7 -- 73
2020-11-29 22:00:00 10.3 6 Nordeste 9 Este 0 956.3 -- 78
2020-11-29 21:00:00 10.7 4 Este 10 Este 0 955.7 -- 76
2020-11-29 20:00:00 11.1 7 Sudeste 15 Sudeste 0 955.3 -- 76
2020-11-29 19:00:00 11.4 8 Este 19 Este 0 954.8 -- 76
2020-11-29 18:00:00 12.2 9 Sudeste 15 Sur 0 954.7 -- 73
2020-11-29 17:00:00 13.8 8 Sudeste 15 Sudeste 0 954.1 -- 62
2020-11-29 16:00:00 13 6 Este 17 Este 0 953.8 -- 69
2020-11-29 15:00:00 13.1 8 Sudeste 18 Sudeste 0 953.9 -- 69
2020-11-29 14:00:00 12 12 Sudeste 23 Este 0 954.3 -- 70
2020-11-29 13:00:00 13.4 10 Sudeste 18 Sudeste 0 954.4 -- 66
2020-11-29 12:00:00 11.3 7 Sudeste 17 Sudeste 0 955 -- 77
2020-11-29 11:00:00 10.8 10 Sudeste 14 Sudeste 0 954.4 -- 86
2020-11-29 10:00:00 8.3 8 Sudeste 16 Este 0 954.2 -- 93
2020-11-29 09:00:00 7.3 6 Sudeste 13 Sudeste 0.2 953.4 -- 95
2020-11-29 08:00:00 7.4 5 Sudeste 15 Este 0 952.8 -- 93
2020-11-29 07:00:00 7.4 9 Este 20 Este 0.5 952.1 -- 93
2020-11-29 06:00:00 7.4 7 Sudeste 14 Sudeste 0.1 951.4 -- 90
2020-11-29 05:00:00 7.6 7 Sudeste 14 Sudeste 0 950.8 -- 89
2020-11-29 04:00:00 7.5 6 Sudeste 13 Sudeste 0 951 -- 91
2020-11-29 03:00:00 7.1 5 Este 8 Sudeste 0 951 -- 91
2020-11-29 02:00:00 6.9 6 Sudeste 10 Sudeste 0 950.8 -- 92
2020-11-29 01:00:00 7.2 3 Este 10 Sudeste 0 950.8 -- 92
2020-11-29 00:00:00 7 4 Este 10 Este 0 950.7 -- 93
2020-11-28 23:00:00 6.7 0 Calma 4 Nordeste 0 950.4 -- 92
2020-11-28 22:00:00 7.1 0 Calma 8 Sur 0 949.5 -- 92
2020-11-28 21:00:00 7.8 3 Sudeste 6 Este 0 949.3 -- 88
2020-11-28 20:00:00 9 3 Sur 6 Sur 0 949 -- 81
2020-11-28 19:00:00 9.9 0 Calma 10 Sudeste 0 948.5 -- 74
2020-11-28 18:00:00 10.4 4 Sur 9 Sudeste 0 948.1 -- 70
2020-11-28 17:00:00 10.5 2 Sur 14 Sudoeste 0 947.5 -- 69
2020-11-28 16:00:00 10.9 10 Sudoeste 17 Sudoeste 0 946.8 -- 66
2020-11-28 15:00:00 11.2 10 Sudoeste 16 Sur 0 946.3 -- 62
2020-11-28 14:00:00 12.1 0 Calma 6 Este 0 946.3 -- 60
2020-11-28 13:00:00 10.4 2 Sudeste 7 Sur 0 946.7 -- 74
2020-11-28 12:00:00 10.3 3 Este 10 Este 0 947.1 -- 68
2020-11-28 11:00:00 9.8 3 Este 7 Nordeste 0 947 -- 73
2020-11-28 10:00:00 5.7 0 Calma 4 Sur 0 947.2 -- 96
2020-11-28 09:00:00 3.8 3 Norte 8 Norte 0 946.6 -- 96
2020-11-28 08:00:00 4.6 2 Sur 4 Sur 0 946 -- 96
2020-11-28 07:00:00 5.1 0 Calma 7 Sudoeste 0 945.3 -- 96
2020-11-28 06:00:00 5.4 4 Sudoeste 7 Sudoeste 0 945 -- 95
2020-11-28 05:00:00 5.9 3 Oeste 10 Sudoeste 0 944.9 -- 93
2020-11-28 04:00:00 6.7 3 Oeste 10 Sudoeste 0 945.2 -- 91
2020-11-28 03:00:00 6.6 0 Calma 9 Oeste 0 945.1 -- 89
2020-11-28 02:00:00 7.5 0 Calma 8 Sudoeste 0 945.2 -- 83
2020-11-28 01:00:00 8.7 3 Noroeste 5 Noroeste 0 945.5 -- 77
2020-11-28 00:00:00 8.7 3 Norte 6 Norte 0 945.4 -- 76
2020-11-27 23:00:00 9 5 Oeste 10 Este 0 945.3 -- 76
2020-11-27 22:00:00 9 3 Este 16 Nordeste 0 945.4 -- 76
2020-11-27 21:00:00 9 0 Calma 7 Nordeste 0 945.4 -- 77
2020-11-27 20:00:00 9.3 4 Este 17 Nordeste 0 945.3 -- 76
2020-11-27 19:00:00 9.2 6 Nordeste 10 Este 0 944.9 -- 77
2020-11-27 18:00:00 9.4 6 Nordeste 19 Nordeste 0.1 944.6 -- 76
2020-11-27 17:00:00 9.6 16 Nordeste 30 Nordeste 0 944.3 -- 76
2020-11-27 16:00:00 11 13 Nordeste 28 Nordeste 0 944.5 -- 71
2020-11-27 15:00:00 11.3 20 Nordeste 35 Nordeste 0.1 944.5 -- 67
2020-11-27 14:00:00 12.6 15 Este 31 Nordeste 0 944.5 -- 64
2020-11-27 13:00:00 12.4 12 Este 21 Nordeste 0 945.2 -- 66
2020-11-27 12:00:00 11.2 10 Este 21 Nordeste 0 946.1 -- 66
2020-11-27 11:00:00 10.8 6 Este 20 Este 0 946.2 -- 70
2020-11-27 10:00:00 9.9 6 Este 18 Este 0 945.8 -- 82
2020-11-27 09:00:00 9.5 7 Este 23 Sudeste 1.1 945.3 -- 87
2020-11-27 08:00:00 9.9 10 Este 19 Sudeste 1.2 946 -- 89
2020-11-27 07:00:00 9.9 3 Este 14 Oeste 0.3 945.7 -- 88
2020-11-27 06:00:00 8.6 2 Oeste 9 Oeste 0.5 945.7 -- 93
2020-11-27 05:00:00 8.8 3 Oeste 8 Oeste 0.6 946 -- 93
2020-11-27 04:00:00 7.9 4 Oeste 10 Oeste 0 946.6 -- 93
2020-11-27 03:00:00 7.9 4 Oeste 9 Oeste 0 947.1 -- 95
2020-11-27 02:00:00 8 5 Oeste 9 Oeste 0 947.6 -- 96
2020-11-27 01:00:00 8.1 2 Oeste 6 Oeste 0.1 948.7 -- 95
2020-11-27 00:00:00 8.3 2 Oeste 5 Oeste 0 949 -- 96
2020-11-26 23:00:00 7.8 0 Calma 6 Nordeste 0 948.8 -- 96
2020-11-26 22:00:00 8.6 0 Calma 6 Norte 0 948.8 -- 96
2020-11-26 21:00:00 8.6 0 Calma 4 Sudeste 0 948.8 -- 95
2020-11-26 20:00:00 8.7 0 Calma 8 Este 0.3 948.5 -- 96
2020-11-26 19:00:00 8.9 5 Este 8 Este 0.6 948.2 -- 93
2020-11-26 18:00:00 8.9 3 Este 14 Este 0 947.5 -- 93
2020-11-26 17:00:00 9.6 9 Este 17 Sudeste 0.4 947.2 -- 90
2020-11-26 16:00:00 10.2 9 Sudeste 18 Sudeste 0.1 947.1 -- 90
2020-11-26 15:00:00 10.6 8 Este 12 Este 0.2 946.4 -- 95
2020-11-26 14:00:00 9.7 0 Calma 6 Nordeste 0.5 946.8 -- 96
2020-11-26 13:00:00 9.2 3 Nordeste 7 Nordeste 5.5 947.7 -- 96
2020-11-26 12:00:00 9.2 2 Nordeste 9 Sur 2.1 948.4 -- 95
2020-11-26 11:00:00 9 3 Sur 6 Sudoeste 0.7 948.4 -- 94
2020-11-26 10:00:00 8.8 3 Sudeste 13 Sudeste 0.1 948.3 -- 96
2020-11-26 09:00:00 8.8 10 Sudeste 15 Sudeste 0.8 948.4 -- 96
2020-11-26 08:00:00 8.8 9 Sudeste 16 Sudeste 2.1 948.4 -- 96
2020-11-26 07:00:00 8.9 7 Sudeste 18 Sudeste 1.4 948.5 -- 96
2020-11-26 06:00:00 9.1 12 Este 21 Sur 0.8 948 -- 93
2020-11-26 05:00:00 9.2 10 Sudeste 27 Sur 1.7 948.5 -- 96
2020-11-26 04:00:00 9.5 12 Sudeste 20 Sudeste 0.1 948.4 -- 92
2020-11-26 03:00:00 9.4 10 Sudeste 15 Sudeste 0 948.3 -- 93
2020-11-26 02:00:00 9.2 7 Sudeste 15 Sudeste 0.2 948.5 -- 95
2020-11-26 01:00:00 9.3 9 Este 15 Sudeste 0.3 949.5 -- 93
2020-11-26 00:00:00 9.4 5 Sudeste 15 Sudeste 0.3 950 -- 92
2020-11-25 23:00:00 9.3 10 Sudeste 19 Sudeste 0 950 -- 95
2020-11-25 22:00:00 9.4 10 Sudeste 18 Sudeste 0.3 949.9 -- 93
2020-11-25 21:00:00 10.1 10 Sudeste 25 Sudeste 0 950 -- 83
2020-11-25 20:00:00 10.8 12 Sur 22 Sudeste 0 950 -- 77
2020-11-25 19:00:00 10.5 7 Sudeste 20 Sur 0 949.9 -- 76
2020-11-25 18:00:00 10.4 9 Sur 19 Sur 0 949.7 -- 88
2020-11-25 17:00:00 10.7 14 Sur 21 Sur 1.4 949.8 -- 89
2020-11-25 16:00:00 11.5 9 Sudoeste 24 Sudoeste 0.6 949.7 -- 83
2020-11-25 15:00:00 13.7 10 Sudeste 20 Sudeste 0 950.3 -- 56
2020-11-25 14:00:00 13.9 12 Sudeste 26 Sur 0 951.2 -- 57
2020-11-25 13:00:00 13.1 8 Sur -- -- -- 952.5 -- 61
2020-11-25 12:00:00 12.5 14 Sur 26 Sudoeste 0 953.6 -- 63
2020-11-25 11:00:00 12.6 9 Este 16 Sudeste 0 954.1 -- 66
2020-11-25 10:00:00 10.8 7 Sudeste 14 Este 0 954.3 -- 71
2020-11-25 09:00:00 8.3 2 Sudeste 7 Sudeste 0 954.7 -- 85
2020-11-25 08:00:00 7.5 0 Calma 9 Este 0 954.9 -- 87
2020-11-25 07:00:00 6.9 0 Calma 8 Este 0 955 -- 92
2020-11-25 06:00:00 6.6 0 Calma 6 Sur 0 955.3 -- 91
2020-11-25 05:00:00 6.9 2 Sur 6 Sur 0 955.6 -- 91
2020-11-25 04:00:00 7.1 0 Calma 4 Sudoeste 0 956.1 -- 92
2020-11-25 03:00:00 6.8 0 Calma 6 Noroeste 0 956.5 -- 92
2020-11-25 02:00:00 7 0 Calma 4 Sur 0 957 -- 89
2020-11-25 01:00:00 6.6 0 Calma 5 Nordeste 0 957.3 -- 90
2020-11-25 00:00:00 7.2 2 Nordeste 4 Nordeste 0 957.7 -- 86
2020-11-24 23:00:00 9 0 Calma 5 Sur 0 958 -- 77
2020-11-24 22:00:00 8.6 0 Calma 4 Sudeste 0 958.4 -- 76
2020-11-24 21:00:00 9 0 Calma 8 Sudoeste 0 958.8 -- 76
2020-11-24 20:00:00 9.4 3 Sudoeste 8 Sudoeste 0 959 -- 74
2020-11-24 19:00:00 9.9 4 Sudoeste 9 Oeste 0 958.9 -- 68
2020-11-24 18:00:00 11.4 6 Sudoeste 12 Oeste 0 958.9 -- 54
2020-11-24 17:00:00 15.1 5 Oeste 14 Sudoeste 0 958.8 -- 38
2020-11-24 16:00:00 16.8 3 Oeste 16 Oeste 0 958.9 -- 33
2020-11-24 15:00:00 16.5 3 Sudoeste 15 Sudoeste 0 959.3 -- 30
2020-11-24 14:00:00 16.3 0 Calma 8 Nordeste 0 960.3 -- 36
2020-11-24 13:00:00 12 0 Calma 9 Este 0 961.2 -- 46
2020-11-24 12:00:00 8.6 3 Este 8 Este 0 962.7 -- 60
2020-11-24 11:00:00 5.5 2 Este 6 Sudeste 0 963.3 -- 73
2020-11-24 10:00:00 1.1 0 Calma 3 Nordeste 0 963.5 -- 96
2020-11-24 09:00:00 0.1 0 Calma -- -- 0 963.3 -- 96
2020-11-24 08:00:00 -1.2 0 Calma 4 Sudoeste 0 962.8 -- 96
2020-11-24 07:00:00 -0.7 0 Calma 4 Sudoeste 0 962.5 -- 96
2020-11-24 06:00:00 -0.2 0 Calma -- -- 0 962.6 -- 96
2020-11-24 05:00:00 0.5 0 Calma -- -- 0 962.8 -- 96
2020-11-24 04:00:00 0.9 0 Calma 2 Sudoeste 0 962.9 -- 96
2020-11-24 03:00:00 1.8 0 Calma -- -- 0 963.3 -- 95
2020-11-24 02:00:00 2.6 0 Calma 5 Sudoeste 0 963.5 -- 93
2020-11-24 01:00:00 3.1 0 Calma 4 Sudeste 0 963.9 -- 92
2020-11-24 00:00:00 3.4 0 Calma -- -- 0 964.2 -- 89
2020-11-23 23:00:00 5.1 0 Calma 4 Sudoeste 0 964.5 -- 81
2020-11-23 22:00:00 5.5 0 Calma 3 Norte 0 964.4 -- 76
2020-11-23 21:00:00 6.7 0 Calma 0 Calma 0 964.3 -- 67
2020-11-23 20:00:00 8.2 0 Calma 4 Sur 0 964 -- 56
2020-11-23 19:00:00 9.8 0 Calma 6 Oeste 0 963.6 -- 46
2020-11-23 18:00:00 13 3 Sudoeste 5 Sudoeste 0 963.3 -- 34
2020-11-23 17:00:00 16.3 0 Calma 8 Este 0 963 -- 28
2020-11-23 16:00:00 16.3 4 Este 10 Este 0 963.3 -- 29
2020-11-23 15:00:00 15.5 5 Este 12 Este 0 963.7 -- 39
2020-11-23 14:00:00 11.8 4 Este 10 Este 0 964.3 -- 53
2020-11-23 13:00:00 8.9 3 Sudeste 9 Este 0 965.6 -- 69
2020-11-23 12:00:00 4.5 0 Calma 8 Este 0 966.2 -- 96
2020-11-23 11:00:00 2.5 2 Este 5 Este 0 966.7 -- 96
2020-11-23 10:00:00 1.8 2 Este 10 Este 0 966.5 -- 96
2020-11-23 09:00:00 1.5 4 Este 9 Este 0 966 -- 96
2020-11-23 08:00:00 1.9 0 Calma 6 Este 0 965.7 -- 96
2020-11-23 07:00:00 2 0 Calma 5 Sudeste 0 965.2 -- 96
2020-11-23 06:00:00 2.1 0 Calma 4 Sudoeste 0 965.2 -- 96
2020-11-23 05:00:00 2 0 Calma -- -- 0 965.1 -- 96
2020-11-23 04:00:00 2.5 0 Calma 2 Este 0 965.4 -- 96
2020-11-23 03:00:00 3 0 Calma 2 Oeste 0 965.5 -- 96
2020-11-23 02:00:00 4.4 0 Calma 0 Calma 0 965.6 -- 95
2020-11-23 01:00:00 4.4 0 Calma 2 Sudeste 0 965.4 -- 95
2020-11-23 00:00:00 5.2 0 Calma 2 Sur 0 965.5 -- 93
2020-11-22 23:00:00 6 0 Calma 3 Nordeste 0 965.5 -- 91
2020-11-22 22:00:00 7.8 0 Calma 4 Sudoeste 0 965.5 -- 86
2020-11-22 21:00:00 8.6 0 Calma 4 Sur 0 965.1 -- 78
2020-11-22 20:00:00 10 0 Calma 4 Sudoeste 0 964.6 -- 68
2020-11-22 19:00:00 12 0 Calma 4 Sur 0 964.1 -- 54
2020-11-22 18:00:00 14.1 2 Sur 5 Sudeste 0 963.8 -- 43
2020-11-22 17:00:00 17.6 3 Sudeste 8 Sudeste 0 963.9 -- 35
2020-11-22 16:00:00 17.7 5 Sur 9 Sudeste 0 963.9 -- 37
2020-11-22 15:00:00 17.3 3 Este 10 Este 0 964.3 -- 39
2020-11-22 14:00:00 17 3 Este 10 Sudeste 0 964.8 -- 42
2020-11-22 13:00:00 14.2 5 Este 12 Este 0 965.7 -- 46
2020-11-22 12:00:00 11.2 7 Este 12 Nordeste 0 966.7 -- 54
2020-11-22 11:00:00 8.9 6 Este 11 Este 0 967 -- 63
2020-11-22 10:00:00 5.8 3 Este 6 Nordeste 0 967 -- 74
2020-11-22 09:00:00 3.2 0 Calma 7 Sudeste 0 966.7 -- 94
2020-11-22 08:00:00 1.1 2 Sudeste 5 Sudeste 0 966.5 -- 96
2020-11-22 07:00:00 2.5 0 Calma 5 Sudoeste 0 966.1 -- 96
2020-11-22 06:00:00 2.2 0 Calma 4 Norte 0 965.8 -- 96
2020-11-22 05:00:00 2.4 0 Calma 4 Sudeste 0 965.7 -- 96
2020-11-22 04:00:00 2.5 0 Calma 3 Nordeste 0 965.7 -- 95
2020-11-22 03:00:00 3.5 0 Calma 4 Oeste 0 965.4 -- 95
2020-11-22 02:00:00 4 0 Calma 3 Nordeste 0 965.8 -- 93
2020-11-22 01:00:00 4.4 0 Calma 4 Noroeste 0 965.7 -- 92
2020-11-22 00:00:00 5.1 0 Calma 4 Noroeste 0 965.3 -- 89
2020-11-21 23:00:00 6.2 0 Calma 3 Sudoeste 0 965 -- 81
2020-11-21 22:00:00 6.9 0 Calma 4 Nordeste 0 965.1 -- 75
2020-11-21 21:00:00 9.1 0 Calma 4 Sudoeste 0 964.8 -- 60
2020-11-21 20:00:00 11 0 Calma 7 Sudoeste 0 964.5 -- 47
2020-11-21 19:00:00 12.6 3 Sudoeste 7 Sudoeste 0 964.5 -- 38
2020-11-21 18:00:00 14.6 0 Calma 9 Sur 0 963.6 -- 33
2020-11-21 17:00:00 16.9 7 Sur 12 Sur 0 963.2 -- 28
2020-11-21 16:00:00 18.6 5 Sudeste 10 Este 0 963.1 -- 27
2020-11-21 15:00:00 18.9 4 Sudeste 10 Sur 0 963.2 -- 29
2020-11-21 14:00:00 17.5 3 Sudeste 10 Este 0 963.7 -- 32
2020-11-21 13:00:00 15.8 3 Sudeste 12 Este 0 964.7 -- 36
2020-11-21 12:00:00 13.3 8 Sudeste 13 Sudeste 0 965.4 -- 39
2020-11-21 11:00:00 10.4 5 Este 10 Este 0 965.7 -- 47
2020-11-21 10:00:00 7.5 3 Sudeste 8 Este 0 965.4 -- 56
2020-11-21 09:00:00 4.9 0 Calma 8 Nordeste 0 964.9 -- 76
2020-11-21 08:00:00 1.9 2 Nordeste 9 Sudeste 0 964.3 -- 82
2020-11-21 07:00:00 2.9 3 Este 8 Este 0 964.2 -- 82
2020-11-21 06:00:00 2.7 0 Calma 7 Norte 0 963.9 -- 87
2020-11-21 05:00:00 2.9 0 Calma 6 Norte 0 964.1 -- 84
2020-11-21 04:00:00 4.4 0 Calma 7 Noroeste 0 964.2 -- 82
2020-11-21 03:00:00 4.2 0 Calma 4 Este 0 964.3 -- 85
2020-11-21 02:00:00 4.9 0 Calma 6 Nordeste 0 964.6 -- 80
2020-11-21 01:00:00 5.4 3 Sudoeste 10 Nordeste 0 964.9 -- 76
2020-11-21 00:00:00 6.6 0 Calma 9 Nordeste 0 965 -- 69
2020-11-20 23:00:00 7 0 Calma 8 Nordeste 0 965 -- 62
2020-11-20 22:00:00 9.4 5 Sudoeste 12 Sudoeste 0 964.8 -- 48
2020-11-20 21:00:00 11.5 0 Calma 12 Sudoeste 0 964.5 -- 35
2020-11-20 20:00:00 11.3 4 Oeste 16 Norte 0 964.7 -- 32
2020-11-20 19:00:00 14.2 7 Norte 19 Nordeste 0 964.7 -- 23
2020-11-20 18:00:00 16.1 6 Norte 21 Nordeste 0 964.6 -- 20
2020-11-20 17:00:00 17.6 11 Nordeste 27 Nordeste 0 964.4 -- 17
2020-11-20 16:00:00 19.2 11 Nordeste 29 Norte 0 964.3 -- 17
2020-11-20 15:00:00 20.3 13 Este 24 Este 0 964.5 -- 17
2020-11-20 14:00:00 21 9 Este 24 Nordeste 0 965.3 -- 17
2020-11-20 13:00:00 18.9 14 Este 22 Este 0 966.3 -- 21
2020-11-20 12:00:00 17 2 Este 9 Nordeste 0 967.2 -- 45
2020-11-20 11:00:00 12.3 2 Nordeste 8 Sur 0 967.3 -- 63
2020-11-20 10:00:00 10.1 0 Calma 6 Este 0 967.4 -- 74
2020-11-20 09:00:00 6.5 0 Calma 4 Sudeste 0 967.5 -- 96
2020-11-20 08:00:00 6 0 Calma 4 Nordeste 0 967.3 -- 96
2020-11-20 07:00:00 6.6 0 Calma 5 Sudoeste 0 967.2 -- 96
2020-11-20 06:00:00 7.3 3 Sudoeste 8 Noroeste 0 966.9 -- 96
2020-11-20 05:00:00 7 0 Calma 7 Noroeste 0 967.3 -- 95
2020-11-20 04:00:00 7.9 0 Calma 5 Oeste 0 967.8 -- 93
2020-11-20 03:00:00 7.9 3 Oeste 9 Norte 0 967.8 -- 93
2020-11-20 02:00:00 10.1 0 Calma 8 Norte 0 967.9 -- 85
2020-11-20 01:00:00 10.2 0 Calma 8 Nordeste 0 968.3 -- 84
2020-11-20 00:00:00 11.2 0 Calma 9 Nordeste 0 968.6 -- 70
2020-11-19 23:00:00 12.7 0 Calma 4 Oeste 0 968.7 -- 66
2020-11-19 22:00:00 13.7 0 Calma 6 Sur 0 968.5 -- 56
2020-11-19 21:00:00 16.2 4 Noroeste 9 Noroeste 0 968.3 -- 43
2020-11-19 20:00:00 17.8 6 Noroeste 12 Oeste 0 968.2 -- 39
2020-11-19 19:00:00 18.9 2 Oeste 9 Noroeste 0 967.9 -- 35
2020-11-19 18:00:00 19.2 5 Nordeste 17 Nordeste 0 967.5 -- 33
2020-11-19 17:00:00 21.3 7 Nordeste 16 Nordeste 0 967.2 -- 30
2020-11-19 16:00:00 23.3 7 Este 14 Sudeste 0 967.1 -- 28
2020-11-19 15:00:00 23.1 6 Este 15 Este 0 967.3 -- 30
2020-11-19 14:00:00 22 2 Este 7 Nordeste 0 967.7 -- 42
2020-11-19 13:00:00 18.2 3 Nordeste 7 Noroeste 0 968.7 -- 53
2020-11-19 12:00:00 12.9 2 Sudeste 6 Sur 0 969.2 -- 90
2020-11-19 11:00:00 9 3 Este 6 Este 0 968.8 -- 96
2020-11-19 10:00:00 7.9 0 Calma 7 Este 0 968.9 -- 96
2020-11-19 09:00:00 7.3 0 Calma 5 Norte 0.1 968.4 -- 96
2020-11-19 08:00:00 7.3 0 Calma 4 Oeste 0 967.5 -- 96
2020-11-19 07:00:00 7.2 0 Calma 5 Norte 0 966.9 -- 96
2020-11-19 06:00:00 7.4 3 Norte 5 Norte 0.1 966.4 -- 96
2020-11-19 05:00:00 7.6 0 Calma 4 Este 0 966.4 -- 96
2020-11-19 04:00:00 8.1 0 Calma 0 Calma 0 966.1 -- 96
2020-11-19 03:00:00 8.9 0 Calma 4 Noroeste 0 966.3 -- 96
2020-11-19 02:00:00 9.2 0 Calma 2 Sudeste 0 966.3 -- 96
2020-11-19 01:00:00 10 0 Calma 3 Sudeste 0 966.5 -- 96
2020-11-19 00:00:00 10.1 0 Calma 5 Oeste 0 966.6 -- 95
2020-11-18 23:00:00 11.5 5 Oeste 8 Oeste 0 966.4 -- 93
2020-11-18 22:00:00 11.5 0 Calma 3 Sudeste 0 965.9 -- 93
2020-11-18 21:00:00 13 0 Calma 7 Oeste 0 965.8 -- 87
2020-11-18 20:00:00 13.7 0 Calma 6 Sudeste 0 965.1 -- 84
2020-11-18 19:00:00 15.9 5 Oeste 9 Oeste 0 964.7 -- 71
2020-11-18 18:00:00 18.2 5 Oeste 6 Oeste 0 964.1 -- 57
2020-11-18 17:00:00 22.7 0 Calma 3 Nordeste 0 964.1 -- 35
2020-11-18 16:00:00 22 0 Calma 6 Este 0 964.1 -- 43
2020-11-18 15:00:00 20 2 Este 7 Nordeste 0 964.6 -- 49
2020-11-18 14:00:00 17 3 Nordeste 8 Este 0 965 -- 59
2020-11-18 13:00:00 13.2 3 Sudeste 8 Sur 0 966 -- 88
2020-11-18 12:00:00 9.4 0 Calma 8 Este 0 966.9 -- 96
2020-11-18 11:00:00 8 3 Este 8 Este 0 966.9 -- 96
2020-11-18 10:00:00 6.6 4 Este 9 Sudeste 0 966.9 -- 96
2020-11-18 09:00:00 6.4 2 Este 7 Este 0.1 966.4 -- 96
2020-11-18 08:00:00 6.4 0 Calma 5 Nordeste 0 966 -- 96
2020-11-18 07:00:00 6.5 3 Este 6 Sudeste 0.1 965.9 -- 96
2020-11-18 06:00:00 6.6 0 Calma 5 Sudeste 0 965.8 -- 96
2020-11-18 05:00:00 6.9 0 Calma -- -- 0 965.6 -- 96
2020-11-18 04:00:00 7 0 Calma -- -- 0 965.7 -- 96
2020-11-18 03:00:00 7.1 0 Calma -- -- 0.1 965.5 -- 96
2020-11-18 02:00:00 7.8 0 Calma -- -- 0 965.7 -- 96
2020-11-18 01:00:00 8.3 0 Calma -- -- 0 965.9 -- 95
2020-11-18 00:00:00 9 0 Calma -- -- 0 966 -- 95
2020-11-17 23:00:00 9.9 0 Calma 3 Sudoeste 0 966 -- 93
2020-11-17 22:00:00 10.7 2 Sudoeste 3 Sudoeste 0 965.8 -- 92
2020-11-17 21:00:00 11.6 0 Calma 5 Sur 0 965.4 -- 88
2020-11-17 20:00:00 13.2 0 Calma 5 Sudoeste 0 965.2 -- 77
2020-11-17 19:00:00 14.3 2 Sudoeste 10 Sudoeste 0 964.7 -- 69
2020-11-17 18:00:00 16.4 4 Sudoeste 7 Sudoeste 0 964.6 -- 55
2020-11-17 17:00:00 21 0 Calma 7 Este 0 964.4 -- 46
2020-11-17 16:00:00 20.4 0 Calma 9 Este 0 964.2 -- 53
2020-11-17 15:00:00 17.5 4 Este 9 Este 0 964.5 -- 62
2020-11-17 14:00:00 13.8 3 Nordeste 8 Nordeste 0 965 -- 93
2020-11-17 13:00:00 11.1 5 Este 9 Este 0 965.7 -- 96
2020-11-17 12:00:00 9.8 5 Este 10 Este 0 966.5 -- 96
2020-11-17 11:00:00 9 4 Este 7 Este 0 966.3 -- 96
2020-11-17 10:00:00 8.8 3 Nordeste 8 Este 0 966.2 -- 96
2020-11-17 09:00:00 8.3 5 Este 8 Este 0 965.7 -- 96
2020-11-17 08:00:00 8.6 5 Este 8 Este 0.1 965.1 -- 96
2020-11-17 07:00:00 8.8 0 Calma 6 Este 0 964.8 -- 96
2020-11-17 06:00:00 9 2 Nordeste 5 Nordeste 0.1 964.4 -- 96
2020-11-17 05:00:00 9 3 Este 6 Este 0 964.6 -- 96
2020-11-17 04:00:00 9.1 2 Nordeste 4 Nordeste 0.1 964.4 -- 96
2020-11-17 03:00:00 9.3 0 Calma 3 Oeste 0 964.5 -- 96
2020-11-17 02:00:00 9.3 0 Calma 3 Este 0 964.4 -- 96
2020-11-17 01:00:00 9.3 0 Calma 4 Sudoeste 0 964.8 -- 96
2020-11-17 00:00:00 9.9 0 Calma 4 Oeste 0 964.5 -- 96
2020-11-16 23:00:00 11 0 Calma 2 Sur 0 964.4 -- 96
2020-11-16 22:00:00 11.5 0 Calma 9 Sudoeste 0 964.5 -- 93
2020-11-16 21:00:00 12.9 2 Sudoeste 8 Sudoeste 0 963.8 -- 91
2020-11-16 20:00:00 13.4 5 Sudoeste 10 Sudoeste 0 963.4 -- 86
2020-11-16 19:00:00 14.6 8 Sudoeste 12 Oeste 0 962.7 -- 77
2020-11-16 18:00:00 16.1 7 Sudoeste 10 Sudoeste 0 962.2 -- 70
2020-11-16 17:00:00 19.4 5 Sudoeste 13 Sudoeste 0 962.2 -- 49
2020-11-16 16:00:00 20.1 4 Oeste 14 Oeste 0 962 -- 50
2020-11-16 15:00:00 21.5 6 Oeste 15 Sudoeste 0 962.2 -- 42
2020-11-16 14:00:00 21.2 4 Oeste 12 Oeste 0 962.3 -- 42
2020-11-16 13:00:00 17.8 0 Calma 5 Este 0 962.8 -- 68
2020-11-16 12:00:00 17.4 0 Calma 6 Nordeste 0 963 -- 78
2020-11-16 11:00:00 15 3 Este 6 Sudoeste 0 963.3 -- 86
2020-11-16 10:00:00 13.6 0 Calma 4 Norte 0 962.9 -- 92
2020-11-16 09:00:00 12.6 0 Calma 5 Sudoeste 0 962 -- 95
2020-11-16 08:00:00 11.7 0 Calma 5 Sudoeste 0 961.5 -- 95
2020-11-16 07:00:00 11.7 0 Calma 7 Norte 0 961.6 -- 95
2020-11-16 06:00:00 12.8 0 Calma 3 Sur 0 960.9 -- 95
2020-11-16 05:00:00 11.8 0 Calma 5 Sudoeste 0 960.6 -- 95
2020-11-16 04:00:00 12.4 0 Calma 9 Sudoeste 0 961 -- 94
2020-11-16 03:00:00 12.6 0 Calma 6 Sudoeste 0 961 -- 96
2020-11-16 02:00:00 13.4 0 Calma 5 Sudoeste 0 961.6 -- 91
2020-11-16 01:00:00 13.6 0 Calma 10 Sudoeste 0 961.9 -- 86
2020-11-16 00:00:00 15 0 Calma 7 Sudoeste 0 961.3 -- 85
2020-11-15 23:00:00 15.2 0 Calma 8 Este 0 960.9 -- 85
2020-11-15 22:00:00 15.1 0 Calma 4 Norte 0 961 -- 89
2020-11-15 21:00:00 15.3 0 Calma 5 Este 0 960.8 -- 87
2020-11-15 20:00:00 15.5 0 Calma 7 Sudoeste 0 960.6 -- 85
2020-11-15 19:00:00 17.1 3 Sudoeste 6 Sudoeste 0 960.6 -- 75
2020-11-15 18:00:00 17.8 0 Calma 9 Sudoeste 0 960 -- 68
2020-11-15 17:00:00 20.4 5 Sudoeste 12 Oeste 0 959.9 -- 58
2020-11-15 16:00:00 20.3 7 Sudoeste 19 Sudoeste 0 959.7 -- 56
2020-11-15 15:00:00 21.2 8 Sudoeste 22 Sur 0 959.8 -- 51
2020-11-15 14:00:00 19.2 12 Sudoeste 21 Sur 0 960.2 -- 60
2020-11-15 13:00:00 17.9 10 Sur 19 Sur 0 960.8 -- 71
2020-11-15 12:00:00 16.1 13 Sudoeste 19 Sudoeste 0 961.6 -- 77
2020-11-15 11:00:00 15.5 9 Sur 17 Sur 0 961.6 -- 83
2020-11-15 10:00:00 14.4 6 Sur 17 Sur 0 961.5 -- 90
2020-11-15 09:00:00 13.6 0 Calma 10 Nordeste 0 961.3 -- 93
2020-11-15 08:00:00 13.3 3 Sur 10 Sur 0 960.8 -- 93
2020-11-15 07:00:00 13.3 6 Sur 12 Sur 0 960.4 -- 96
2020-11-15 06:00:00 12.9 0 Calma 4 Nordeste 0 960.3 -- 96
2020-11-15 05:00:00 12.6 0 Calma 4 Este 0 960.1 -- 96
2020-11-15 04:00:00 12.3 0 Calma 7 Sur 0 960.5 -- 96
2020-11-15 03:00:00 11.7 2 Este 12 Sur 0 960.8 -- 96
2020-11-15 02:00:00 11.9 0 Calma 5 Sudoeste 0 960.8 -- 96
2020-11-15 01:00:00 12.2 0 Calma 5 Norte 0 961.1 -- 96
2020-11-15 00:00:00 12.2 2 Norte 6 Noroeste 0 961.1 -- 96
2020-11-14 23:00:00 12.3 2 Sudoeste 8 Sudoeste 0 961.1 -- 96
2020-11-14 22:00:00 11.8 0 Calma 7 Oeste 0 960.8 -- 95
2020-11-14 21:00:00 12.6 6 Sudoeste 12 Sudoeste 0.1 960.5 -- 94
2020-11-14 20:00:00 12.9 6 Sudoeste 11 Sudoeste 0 960.2 -- 95
2020-11-14 19:00:00 13.3 0 Calma 13 Oeste 0.4 959.6 -- 93
2020-11-14 18:00:00 13.9 3 Sudoeste 12 Sudoeste 0.2 959 -- 93
2020-11-14 17:00:00 14 0 Calma 12 Sur 0.3 958.6 -- 93
2020-11-14 16:00:00 14 0 Calma 7 Sur 0.2 958.5 -- 96
2020-11-14 15:00:00 13.5 2 Este 7 Este 0.2 958.6 -- 96
2020-11-14 14:00:00 12.5 3 Sudeste 9 Sudeste 0.8 959.1 -- 96
2020-11-14 13:00:00 12.4 4 Este 8 Sudeste 0.4 959.6 -- 94
2020-11-14 12:00:00 12.3 3 Sudeste 10 Este 0.1 960 -- 90
2020-11-14 11:00:00 12 3 Sudeste 8 Este 0 959.8 -- 93
2020-11-14 10:00:00 11.1 3 Este 8 Sudeste 0 959.9 -- 95
2020-11-14 09:00:00 10.6 0 Calma 6 Este 0.1 959.6 -- 95
2020-11-14 08:00:00 10.5 0 Calma 4 Sudeste 0 958.9 -- 93
2020-11-14 07:00:00 10.5 0 Calma 4 Sudeste 0.2 958.8 -- 95
2020-11-14 06:00:00 10.3 0 Calma 4 Sudeste 0.1 958.5 -- 95
2020-11-14 05:00:00 10.2 0 Calma 2 Nordeste 0 958.4 -- 93
2020-11-14 04:00:00 10.5 0 Calma 5 Norte 0 958.7 -- 93
2020-11-14 03:00:00 10.4 0 Calma 6 Nordeste 0 959.1 -- 93
2020-11-14 02:00:00 10.4 0 Calma 4 Noroeste 0 959.6 -- 93
2020-11-14 01:00:00 10.4 0 Calma 4 Sudoeste 0 959.6 -- 91
2020-11-14 00:00:00 10.2 0 Calma 5 Norte 0 960 -- 92
2020-11-13 23:00:00 10.1 0 Calma 3 Sur 0 959.9 -- 91
2020-11-13 22:00:00 10.6 0 Calma 2 Sudoeste 0 959.7 -- 89
2020-11-13 21:00:00 11.3 0 Calma -- -- 0 959.3 -- 81
2020-11-13 20:00:00 12.4 0 Calma 4 Sudoeste 0 959.2 -- 74
2020-11-13 19:00:00 13.4 0 Calma 5 Oeste 0 958.6 -- 62
2020-11-13 18:00:00 15 0 Calma 2 Noroeste 0 958.3 -- 54
2020-11-13 17:00:00 16.5 0 Calma 6 Sur 0 958 -- 48
2020-11-13 16:00:00 17.3 3 Sudeste 6 Sudeste 0 958.1 -- 43
2020-11-13 15:00:00 16.7 4 Sudeste 8 Este 0 958.3 -- 45
2020-11-13 14:00:00 16.6 5 Este 11 Este 0 958.9 -- 47
2020-11-13 13:00:00 14.1 3 Este 11 Sudeste 0 959.5 -- 56
2020-11-13 12:00:00 13.1 5 Este 11 Este 0 960.2 -- 61
2020-11-13 11:00:00 9.7 2 Este 6 Nordeste 0 960.3 -- 77
2020-11-13 10:00:00 7.7 2 Este 6 Nordeste 0 960.2 -- 96
2020-11-13 09:00:00 5.3 0 Calma 3 Este 0 959.9 -- 96
2020-11-13 08:00:00 4.8 0 Calma 2 Norte 0 959.4 -- 96
2020-11-13 07:00:00 4.8 0 Calma 3 Norte 0 959.1 -- 96
2020-11-13 06:00:00 4.6 0 Calma 3 Norte 0 959.1 -- 95
2020-11-13 05:00:00 5 0 Calma 0 Calma 0 958.7 -- 96
2020-11-13 04:00:00 4.9 0 Calma -- -- 0 958.9 -- 96
2020-11-13 03:00:00 5.4 0 Calma -- -- 0 959.3 -- 95
2020-11-13 02:00:00 5.9 0 Calma 5 Noroeste 0 959.1 -- 95
2020-11-13 01:00:00 6.2 0 Calma 4 Oeste 0 959.4 -- 93
2020-11-13 00:00:00 6.9 0 Calma 0 Calma 0 959 -- 92
2020-11-12 23:00:00 8.1 0 Calma 4 Oeste 0 959 -- 88
2020-11-12 22:00:00 8.7 0 Calma 3 Nordeste 0 958.7 -- 81
2020-11-12 21:00:00 10.3 2 Noroeste 5 Noroeste 0 958.8 -- 71
2020-11-12 20:00:00 11 3 Nordeste 9 Sudeste 0 958.7 -- 62
2020-11-12 19:00:00 12.6 5 Este 12 Sudeste 0 958.7 -- 51
2020-11-12 18:00:00 14.8 8 Sudeste 17 Sur 0 958.1 -- 39
2020-11-12 17:00:00 17.4 11 Sudeste 18 Sur 0 957.7 -- 31
2020-11-12 16:00:00 18.5 11 Sudeste 24 Sudeste 0 957.6 -- 30
2020-11-12 15:00:00 18.6 15 Este 24 Sudeste 0 958.3 -- 31
2020-11-12 14:00:00 18.4 10 Sudeste 20 Sudeste 0 958.9 -- 40
2020-11-12 13:00:00 17.5 9 Sudeste 17 Sudeste 0 959.9 -- 45
2020-11-12 12:00:00 14.9 4 Este 12 Este 0 960.8 -- 57
2020-11-12 11:00:00 12.2 4 Este 13 Nordeste 0 961.4 -- 73
2020-11-12 10:00:00 7.2 0 Calma 6 Nordeste 0 961.7 -- 96
2020-11-12 09:00:00 7.1 0 Calma 5 Sudoeste 0 961.3 -- 96
2020-11-12 08:00:00 6.4 0 Calma 3 Norte 0 960.8 -- 95
2020-11-12 07:00:00 6.5 0 Calma 4 Sudoeste 0 960.9 -- 96
2020-11-12 06:00:00 6.2 0 Calma 5 Noroeste 0 960.9 -- 96
2020-11-12 05:00:00 6.9 0 Calma 3 Oeste 0 960.7 -- 96
2020-11-12 04:00:00 7.1 0 Calma 0 Calma 0 961.1 -- 96
2020-11-12 03:00:00 7.6 0 Calma 2 Este 0 961.9 -- 95
2020-11-12 02:00:00 8.3 0 Calma 3 Sudoeste 0 962 -- 93
2020-11-12 01:00:00 9.2 0 Calma 5 Oeste 0 962.5 -- 91
2020-11-12 00:00:00 9.2 0 Calma 5 Norte 0 962.3 -- 90
2020-11-11 23:00:00 9.5 0 Calma 4 Sudeste 0 962.2 -- 89
2020-11-11 22:00:00 10.7 0 Calma 4 Sudoeste 0 962 -- 76
2020-11-11 21:00:00 11.6 0 Calma 8 Oeste 0 961.8 -- 69
2020-11-11 20:00:00 13.3 6 Oeste 9 Oeste 0 961.7 -- 58
2020-11-11 19:00:00 13.9 4 Sudoeste 9 Sudoeste 0 961.1 -- 54
2020-11-11 18:00:00 15.7 3 Noroeste 4 Noroeste 0 960.7 -- 45
2020-11-11 17:00:00 18 0 Calma 7 Norte 0 960.6 -- 37
2020-11-11 16:00:00 19.1 4 Nordeste 9 Nordeste 0 960.8 -- 35
2020-11-11 15:00:00 20.6 3 Este 10 Sudeste 0 961 -- 38
2020-11-11 14:00:00 18.5 5 Este 14 Este 0 961.5 -- 42
2020-11-11 13:00:00 16.8 7 Este 12 Sudeste 0 962.1 -- 51
2020-11-11 12:00:00 12.7 2 Nordeste 8 Sudeste 0 963.3 -- 64
2020-11-11 11:00:00 8 0 Calma 6 Nordeste 0 963.7 -- 96
2020-11-11 10:00:00 5.8 3 Nordeste 8 Nordeste 0 964 -- 96
2020-11-11 09:00:00 5.1 3 Nordeste 6 Nordeste 0.1 963.9 -- 96
2020-11-11 08:00:00 4.9 0 Calma 5 Nordeste 0 963.6 -- 96
2020-11-11 07:00:00 5 2 Nordeste 5 Nordeste 0 963.6 -- 96
2020-11-11 06:00:00 5.2 0 Calma 5 Este 0.1 963.7 -- 96
2020-11-11 05:00:00 5.6 0 Calma 4 Este 0 963.7 -- 96
2020-11-11 04:00:00 5.9 0 Calma 4 Nordeste 0.1 964.3 -- 96
2020-11-11 03:00:00 5.6 0 Calma 0 Calma 0 964.4 -- 96
2020-11-11 02:00:00 6.9 0 Calma 3 Oeste 0 964.7 -- 96
2020-11-11 01:00:00 7.2 0 Calma 7 Noroeste 0 964.9 -- 96
2020-11-11 00:00:00 7.7 0 Calma 4 Sudeste 0 964.8 -- 95
2020-11-10 23:00:00 8.8 0 Calma 4 Sur 0 965 -- 93
2020-11-10 22:00:00 9.9 0 Calma 3 Sudoeste 0 964.7 -- 91
2020-11-10 21:00:00 10.4 0 Calma 6 Este 0 964.4 -- 86
2020-11-10 20:00:00 12.2 0 Calma 5 Sur 0 964.3 -- 76
2020-11-10 19:00:00 13.2 2 Este 6 Este 0 964.1 -- 68
2020-11-10 18:00:00 14.6 4 Sur 13 Sudeste 0 963.7 -- 56
2020-11-10 17:00:00 17 7 Sudeste 16 Sur 0 963.4 -- 43
2020-11-10 16:00:00 18.5 8 Sudeste 15 Sur 0 963.6 -- 43
2020-11-10 15:00:00 18 4 Este 12 Este 0 963.9 -- 52
2020-11-10 14:00:00 14.7 4 Nordeste 11 Este 0 964.2 -- 66
2020-11-10 13:00:00 10.6 0 Calma 8 Este 0 965.2 -- 95
2020-11-10 12:00:00 9 3 Este 11 Este 0 965.7 -- 96
2020-11-10 11:00:00 7.1 4 Este 8 Este 0 965.8 -- 96
2020-11-10 10:00:00 7 4 Este 6 Este 0 965.8 -- 96
2020-11-10 09:00:00 6.1 3 Este 9 Nordeste 0 965.3 -- 96
2020-11-10 08:00:00 6.4 3 Este 9 Sudeste 0 964.4 -- 96
2020-11-10 07:00:00 6.5 0 Calma 3 Oeste 0.1 964.1 -- 96
2020-11-10 06:00:00 6.7 0 Calma 0 Calma 0 964.1 -- 96
2020-11-10 05:00:00 6.6 0 Calma 3 Sudeste 0.1 963.5 -- 96
2020-11-10 04:00:00 6.8 0 Calma 4 Este 0 963.5 -- 96
2020-11-10 03:00:00 6.8 0 Calma 3 Este 0 963.5 -- 96
2020-11-10 02:00:00 6.9 0 Calma 4 Oeste 0 963.4 -- 96
2020-11-10 01:00:00 8.1 0 Calma 4 Nordeste 0 963.8 -- 96
2020-11-10 00:00:00 8.8 0 Calma 3 Nordeste 0 963.4 -- 95
2020-11-09 23:00:00 9 0 Calma 7 Sudoeste 0 963.8 -- 93
2020-11-09 22:00:00 9.9 0 Calma 4 Nordeste 0 963.1 -- 89
2020-11-09 21:00:00 11 3 Sudoeste 9 Sudoeste 0 962.8 -- 85
2020-11-09 20:00:00 11.5 6 Sudoeste 10 Oeste 0 962.5 -- 84
2020-11-09 19:00:00 12.5 5 Oeste 11 Oeste 0 962.3 -- 77
2020-11-09 18:00:00 14 4 Sudoeste 12 Oeste 0 961.5 -- 64
2020-11-09 17:00:00 17.4 4 Oeste 13 Oeste 0 961.2 -- 48
2020-11-09 16:00:00 18.9 4 Oeste 13 Sudoeste 0 960.8 -- 41
2020-11-09 15:00:00 18.5 8 Sudoeste 15 Sudoeste 0 960.8 -- 43
2020-11-09 14:00:00 15.4 2 Sudeste 8 Este 0 960.8 -- 70
2020-11-09 13:00:00 15.6 6 Este 13 Este 0 961.4 -- 73
2020-11-09 12:00:00 14.3 4 Nordeste 8 Nordeste 0 962.1 -- 93
2020-11-09 11:00:00 12.4 4 Nordeste 6 Nordeste 0 962 -- 96
2020-11-09 10:00:00 11.6 2 Norte 9 Este 0.1 961.8 -- 96
2020-11-09 09:00:00 11.1 3 Sur 10 Este 0.1 961.5 -- 96
2020-11-09 08:00:00 10.7 5 Este 9 Sudeste 0.1 960.4 -- 96
2020-11-09 07:00:00 10.7 4 Sudeste 9 Sudeste 2.9 960 -- 96
2020-11-09 06:00:00 10.8 0 Calma 5 Noroeste 1.2 959.8 -- 96
2020-11-09 05:00:00 10.6 0 Calma 9 Oeste 0.5 959.5 -- 95
2020-11-09 04:00:00 11.2 0 Calma 5 Noroeste 0 959.6 -- 89
2020-11-09 03:00:00 11 2 Sudeste 6 Sudeste 0 959.8 -- 89
2020-11-09 02:00:00 11.1 0 Calma 4 Sudeste 0.1 959.8 -- 89
2020-11-09 01:00:00 11.3 0 Calma 4 Sudoeste 0 960.2 -- 84
2020-11-09 00:00:00 11.6 0 Calma 4 Este 0 960.3 -- 80
2020-11-08 23:00:00 11.2 0 Calma 4 Sur 0 960.2 -- 77
2020-11-08 22:00:00 11.9 0 Calma 7 Nordeste 0 960.2 -- 76
2020-11-08 21:00:00 12.6 0 Calma 10 Sur 0 960.1 -- 70
2020-11-08 20:00:00 12.8 4 Sudoeste 10 Sur 0 960 -- 70
2020-11-08 19:00:00 13.6 6 Sur 10 Sur 0 959.8 -- 64
2020-11-08 18:00:00 15.2 6 Sur 9 Sur 0 959.4 -- 57
2020-11-08 17:00:00 17.4 5 Sur 13 Sur 0 959.4 -- 47
2020-11-08 16:00:00 17.9 9 Sur 16 Sudoeste 0 959.6 -- 46
2020-11-08 15:00:00 17.1 10 Sudoeste 21 Sur 0 959.7 -- 45
2020-11-08 14:00:00 18.2 14 Sur 23 Sudoeste 0 960 -- 42
2020-11-08 13:00:00 17.6 12 Sur 22 Sur 0 960.7 -- 46
2020-11-08 12:00:00 13.5 4 Este 12 Sudeste 0 961.6 -- 71
2020-11-08 11:00:00 13.4 5 Sudeste 11 Este 0 962.1 -- 68
2020-11-08 10:00:00 10.5 4 Este 8 Este 0 962.2 -- 80
2020-11-08 09:00:00 7.1 0 Calma 7 Este 0 962 -- 96
2020-11-08 08:00:00 6.2 0 Calma 5 Este 0 961.6 -- 96
2020-11-08 07:00:00 6.5 0 Calma 6 Sudeste 0 961.6 -- 96
2020-11-08 06:00:00 6.4 0 Calma 5 Sudeste 0 961.5 -- 96
2020-11-08 05:00:00 6.9 0 Calma 5 Sudeste 0 961.7 -- 96
2020-11-08 04:00:00 7 0 Calma 5 Noroeste 0 961.9 -- 96
2020-11-08 03:00:00 7.7 0 Calma 4 Sur 0 961.9 -- 96
2020-11-08 02:00:00 7.4 0 Calma 4 Este 0 962.3 -- 96
2020-11-08 01:00:00 8.6 0 Calma 4 Sudeste 0 962.4 -- 95
2020-11-08 00:00:00 9.1 0 Calma 4 Sur 0 962.3 -- 92
2020-11-07 23:00:00 9.5 0 Calma 4 Nordeste 0 962 -- 92
2020-11-07 22:00:00 10.4 0 Calma 6 Sudoeste 0 961.9 -- 89
2020-11-07 21:00:00 11.1 0 Calma 8 Sudoeste 0 961.7 -- 85
2020-11-07 20:00:00 11.8 0 Calma 8 Sudoeste 0 961.5 -- 77
2020-11-07 19:00:00 13.5 4 Sudoeste 9 Sudoeste 0 961 -- 68
2020-11-07 18:00:00 14 4 Sudoeste 11 Sudoeste 0 960.3 -- 62
2020-11-07 17:00:00 15.5 5 Sudoeste 13 Sudoeste 0 959.7 -- 56
2020-11-07 16:00:00 15.4 8 Sudoeste 19 Sudoeste 0 959.4 -- 56
2020-11-07 15:00:00 16.5 9 Sudoeste 26 Sudoeste 0 959.2 -- 54
2020-11-07 14:00:00 17.1 15 Sudoeste 27 Sudoeste 0 958.9 -- 51
2020-11-07 13:00:00 14.6 15 Sudoeste 28 Sudoeste 0 958.9 -- 62
2020-11-07 12:00:00 13.9 12 Sudoeste 22 Sudoeste 0.2 958.4 -- 75
2020-11-07 11:00:00 13.4 11 Sudoeste 25 Sur 0 957.8 -- 77
2020-11-07 10:00:00 13 12 Sudoeste 20 Sur 0 956.9 -- 86
2020-11-07 09:00:00 11.2 9 Sudoeste 18 Sur 0 955.8 -- 90
2020-11-07 08:00:00 10.7 13 Sur 26 Sur 0.2 954.1 -- 89
2020-11-07 07:00:00 10.5 0 Calma 6 Nordeste 0 953.8 -- 93
2020-11-07 06:00:00 10.7 2 Nordeste 16 Sudeste 0 953.3 -- 93
2020-11-07 05:00:00 10.9 10 Sur 39 Sudoeste 2.4 953.4 -- 93
2020-11-07 04:00:00 12.2 15 Sur 25 Sur 0.2 953.5 -- 91
2020-11-07 03:00:00 12.7 12 Sur 31 Sudeste 0.7 953 -- 85
2020-11-07 02:00:00 13 19 Sudeste 33 Sudeste 0 952.6 -- 80
2020-11-07 01:00:00 12.3 18 Sudeste 24 Sudeste 0 952.7 -- 89
2020-11-07 00:00:00 12.6 13 Sur 44 Sur 1.2 953.5 -- 83
2020-11-06 23:00:00 13.2 30 Sur 49 Sur 1.1 954.9 -- 74
2020-11-06 22:00:00 17.1 8 Sur 18 Sur 0 953.2 -- 49
2020-11-06 21:00:00 17.4 6 Sur 14 Sur 0 952.8 -- 48
2020-11-06 20:00:00 18.3 9 Sur 20 Sudeste 0 952.9 -- 45
2020-11-06 19:00:00 17.5 7 Sur 27 Sudoeste 0 951.6 -- 49
2020-11-06 18:00:00 18 18 Sudoeste 33 Sudoeste 0 952 -- 52
2020-11-06 17:00:00 19.6 9 Sudeste 20 Sudeste 0 950.1 -- 49
2020-11-06 16:00:00 20.4 11 Sudeste 22 Sudeste 0 950.1 -- 48
2020-11-06 15:00:00 20 10 Sudeste 22 Este 0 950.2 -- 49
2020-11-06 14:00:00 19.4 11 Sudeste 24 Este 0 950.9 -- 49
2020-11-06 13:00:00 18.3 14 Sudeste 25 Sudeste 0 951.7 -- 51
2020-11-06 12:00:00 17.5 17 Sudeste 37 Sudeste 0 952.1 -- 54
2020-11-06 11:00:00 16.5 18 Sudeste 31 Sudeste 0 952.6 -0.6 58
2020-11-06 10:00:00 15 15 Sudeste 28 Sudeste 0 952.9 -- 68
2020-11-06 09:00:00 13.4 16 Sudeste 25 Sudeste 0 953.3 -- 74
2020-11-06 08:00:00 11.1 4 Este 11 Este 0 953.2 -- 88
2020-11-06 07:00:00 11.4 4 Nordeste 11 Sudeste 0 953.8 -- 82
2020-11-06 06:00:00 11.4 4 Este 16 Este 0 954.1 -- 86
2020-11-06 05:00:00 12.2 13 Este 20 Este 0 954.2 -- 76
2020-11-06 04:00:00 12.9 5 Este 20 Este 0 954.8 -- 73
2020-11-06 03:00:00 12.9 13 Sudeste 23 Sudeste 0 955.3 -- 73
2020-11-06 02:00:00 12.4 13 Sudeste 20 Sudeste 0 955.3 -- 80
2020-11-06 01:00:00 11.3 11 Este 17 Este 0 955.3 -- 87
2020-11-06 00:00:00 10.6 5 Este 9 Este 0 954.9 -- 92
2020-11-05 23:00:00 9.7 2 Nordeste 6 Nordeste 0 955.1 -- 96
2020-11-05 22:00:00 9.2 3 Nordeste 6 Oeste 0 955.4 -- 96
2020-11-05 21:00:00 9.6 0 Calma 9 Noroeste 0 955.3 -- 96
2020-11-05 20:00:00 9.7 3 Oeste 10 Oeste 0 954.6 -- 96
2020-11-05 19:00:00 10.1 8 Oeste 11 Oeste 0 954.6 -- 96
2020-11-05 18:00:00 10.2 2 Oeste 19 Norte 6.1 954.2 -- 96
2020-11-05 17:00:00 10.5 3 Oeste 13 Nordeste 5.3 955.1 -- 95
2020-11-05 16:00:00 10.6 5 Sudoeste 45 Sur 1.4 954.9 -- 87
2020-11-05 15:00:00 15.5 23 Este 39 Sudeste 0 953 -- 67
2020-11-05 14:00:00 15.4 8 Este 22 Este 0.4 953.5 -- 76
2020-11-05 13:00:00 14.9 14 Sudeste 36 Este 0 954.7 -- 71
2020-11-05 12:00:00 15.1 18 Este 31 Sudeste 0 955.1 -- 69
2020-11-05 11:00:00 14.5 17 Sudeste 39 Este 0 955.1 -- 71
2020-11-05 10:00:00 13.5 22 Sudeste 44 Este 0 954.8 -- 75
2020-11-05 09:00:00 12.8 24 Sudeste 42 Sudeste 0 954.3 -- 76
2020-11-05 08:00:00 13 21 Este 44 Este 0 953.8 -- 75
2020-11-05 07:00:00 12.6 16 Este 40 Este 0 953 -- 73
2020-11-05 06:00:00 12.5 19 Este 50 Este 0 952.7 -- 77
2020-11-05 05:00:00 12.4 27 Este 48 Sudeste 0 952.8 -- 76
2020-11-05 04:00:00 11.6 16 Este 38 Este 0.3 953.4 -- 83
2020-11-05 03:00:00 11.9 15 Este 26 Este 0 953.7 -- 80
2020-11-05 02:00:00 11.3 11 Este 26 Sudeste 0 952.8 -- 86
2020-11-05 01:00:00 10.8 6 Este 16 Este 0.2 953.9 -- 92
2020-11-05 00:00:00 10.9 12 Este 24 Sudeste 1.2 954.2 -- 90
2020-11-04 23:00:00 11.6 13 Este 22 Sudeste 0 954.3 -- 87
2020-11-04 22:00:00 11.5 10 Sudeste 24 Sudeste 0 954 -- 89
2020-11-04 21:00:00 11.7 12 Sudeste 22 Este 0.2 953.5 -- 92
2020-11-04 20:00:00 11.2 8 Este 12 Sudeste 0.2 953.4 -- 93
2020-11-04 19:00:00 11.3 8 Sudeste 21 Este 0.5 953.1 -- 91
2020-11-04 18:00:00 12.1 6 Sudeste 20 Este 0.1 952.9 -- 83
2020-11-04 17:00:00 12.9 6 Sudeste 17 Sudeste 0.6 952.9 -- 89
2020-11-04 16:00:00 13.9 8 Sudeste 18 Sudeste 0 952.8 -- 77
2020-11-04 15:00:00 14.7 7 Sudeste 18 Sudeste 0 953.4 -- 77
2020-11-04 14:00:00 11.6 2 Sur 70 Sudoeste 11.2 954.2 -- 92
2020-11-04 13:00:00 12.6 10 Sudeste 20 Este 0.1 955.1 -- 89
2020-11-04 12:00:00 12.3 11 Sudeste 19 Sudeste 0 956 -- 91
2020-11-04 11:00:00 11.7 11 Sudeste 23 Sudeste 0.7 956.6 -0.4 92
2020-11-04 10:00:00 11.4 14 Sudeste 22 Sudeste 0.2 957.1 -- 96
2020-11-04 09:00:00 9.9 4 Este 10 Nordeste 2.6 957.1 -- 96
2020-11-04 08:00:00 9.6 0 Calma 6 Oeste 0 957 -- 96
2020-11-04 07:00:00 9.5 0 Calma 5 Sudoeste 0 957.3 -- 96
2020-11-04 06:00:00 10.4 0 Calma 6 Oeste 0 957.9 -- 96
2020-11-04 05:00:00 10.8 5 Noroeste 8 Oeste 0 958.3 -- 93
2020-11-04 04:00:00 11.4 0 Calma 6 Sur 0 958.7 -- 89
2020-11-04 03:00:00 12.1 2 Nordeste 5 Sur 0 959.7 -- 89
2020-11-04 02:00:00 11.5 0 Calma 6 Nordeste 0 960.4 -- 93
2020-11-04 01:00:00 12.1 4 Este 9 Este 0 961.1 -- 93
2020-11-04 00:00:00 12.4 0 Calma 12 Nordeste 0 961.6 -- 93
2020-11-03 23:00:00 13.4 0 Calma 7 Nordeste 0 961.9 -- 89
2020-11-03 22:00:00 14.1 3 Sur 19 Nordeste 0 962.1 -- 85
2020-11-03 21:00:00 14.6 5 Nordeste 18 Nordeste 0 962.1 -- 87
2020-11-03 20:00:00 15 0 Calma 8 Oeste 0.2 962.2 -- 93
2020-11-03 19:00:00 15.1 3 Noroeste 9 Noroeste 0.2 962.2 -- 93
2020-11-03 18:00:00 15.8 2 Norte 9 Noroeste 0.5 961.6 -- 93
2020-11-03 17:00:00 16.7 2 Norte 11 Sudoeste 0.3 961.2 -- 89
2020-11-03 16:00:00 17 4 Oeste 11 Sudoeste 0.3 961.6 -- 84
2020-11-03 15:00:00 18 4 Norte 10 Norte 0 961.5 -- 68
2020-11-03 14:00:00 20.8 0 Calma 11 Oeste 0 961.7 -- 54
2020-11-03 13:00:00 20.9 0 Calma 5 Noroeste 0 962.1 -- 57
2020-11-03 12:00:00 19.3 2 Sudeste 7 Sur 0 962.3 -- 64
2020-11-03 11:00:00 16.8 0 Calma 6 Este 0 962.6 -- 74
2020-11-03 10:00:00 15.5 2 Este 9 Sudeste 0 962.4 -- 81
2020-11-03 09:00:00 12.9 2 Sudeste 8 Oeste 0 962.2 -- 95
2020-11-03 08:00:00 13.1 2 Oeste 9 Oeste 0 961.9 -- 95
2020-11-03 07:00:00 12.6 3 Noroeste 5 Noroeste 0 961.5 -- 95
2020-11-03 06:00:00 12.5 2 Nordeste 6 Este 0 961.7 -- 93
2020-11-03 05:00:00 13.3 0 Calma 9 Sudoeste 0 961.6 -- 93
2020-11-03 04:00:00 13.9 0 Calma 5 Norte 0 961.6 -- 90
2020-11-03 03:00:00 13.9 0 Calma 5 Noroeste 0 961.6 -- 90
2020-11-03 02:00:00 14.3 0 Calma 5 Sur 0 961.4 -- 85
2020-11-03 01:00:00 15 0 Calma 8 Sudoeste 0 961.6 -- 82
2020-11-03 00:00:00 15.6 3 Sudoeste 7 Sudoeste 0 961.7 -- 77
2020-11-02 23:00:00 16.6 5 Sudoeste 10 Sudoeste 0 961.9 -- 71
2020-11-02 22:00:00 16.6 5 Sudoeste 8 Oeste 0 961.8 -- 70
2020-11-02 21:00:00 17.4 5 Sudoeste 10 Oeste 0 961.7 -- 66
2020-11-02 20:00:00 17.6 6 Sudoeste 9 Sudoeste 0 961.5 -- 65
2020-11-02 19:00:00 17.9 5 Sudoeste 9 Oeste 0 961 -- 61
2020-11-02 18:00:00 19.3 0 Calma 10 Oeste 0 960.4 -- 51
2020-11-02 17:00:00 24 5 Oeste 10 Oeste 0 960.4 -- 28
2020-11-02 16:00:00 23.9 6 Sur 12 Sur 0 960.4 -- 29
2020-11-02 15:00:00 24 0 Calma 9 Nordeste 0 960.7 -- 30
2020-11-02 14:00:00 22.5 3 Este 8 Nordeste 0 961.1 -- 33
2020-11-02 13:00:00 20.5 0 Calma 9 Este 0 962.3 -- 42
2020-11-02 12:00:00 18.7 5 Este 9 Este 0 962.9 -- 48
2020-11-02 11:00:00 13.5 3 Este 8 Sudeste 0 963.2 -- 65
2020-11-02 10:00:00 8.8 0 Calma 5 Nordeste 0 963.2 -- 96
2020-11-02 09:00:00 6.6 0 Calma 0 Calma 0 963 -- 96
2020-11-02 08:00:00 5.9 0 Calma -- -- 0 962.5 -- 96
2020-11-02 07:00:00 6.2 0 Calma 6 Sudoeste 0 962.3 -- 96
2020-11-02 06:00:00 6.6 0 Calma 4 Sudoeste 0 962.2 -- 96
2020-11-02 05:00:00 7.5 0 Calma 3 Sudeste 0 962.3 -- 96
2020-11-02 04:00:00 8.7 0 Calma -- -- 0 962.2 -- 95
2020-11-02 03:00:00 9 0 Calma -- -- 0 962.5 -- 95
2020-11-02 02:00:00 9.6 0 Calma 3 Sudeste 0 962.5 -- 93
2020-11-02 01:00:00 9.4 0 Calma 4 Sudeste 0 963 -- 93
2020-11-02 00:00:00 10.9 2 Sudoeste 5 Sudoeste 0 962.9 -- 89